Hamiter, Arkansas
Current Conditions -  °F | °C
As of 6:53 AM on Wednesday 22 Oct 2014 (Local Time) from KLIT Reporting Station
Clear Clear  
Wind Chill: 51°   Ceiling: Unl
Heat Index: 51°   Visibility: 10mi
Dew Point: 46°   Wind: 7mph
Humidity: 83%   Direction: 50°NE
Pressure: 30.19"   Gusts: NA
Location:  34.7054°N, 92.1029°W
Report Text: KLIT 221153Z 05006KT 10SM CLR 11/08 A3019 RMK AO2 SLP225 T01060078 10133 20106 53016
Loading
Personal Weather Stations






























Interactive Weather Map
Tropical Storm Tracking
New forecast layout! Learn more

10-Day Weather Forecast

Advertisements
Track Severe Weather on mobile